createdAt,value
2022-12-13T00:01:21.024Z,-0.82
2022-12-13T00:04:05.721Z,-0.88
2022-12-13T00:06:33.136Z,-1.09
2022-12-13T00:09:00.349Z,-1.18
2022-12-13T00:11:27.848Z,-1.12
2022-12-13T00:14:38.142Z,-0.97
2022-12-13T00:17:25.041Z,-0.93
2022-12-13T00:19:51.586Z,-1.02
2022-12-13T00:22:18.123Z,-0.71
2022-12-13T00:24:46.220Z,-0.48
2022-12-13T00:27:12.915Z,-0.57
2022-12-13T00:29:39.542Z,-0.41
2022-12-13T00:32:06.166Z,-0.70
2022-12-13T00:34:32.740Z,-0.46
2022-12-13T00:36:59.603Z,-0.46
2022-12-13T00:39:26.679Z,-0.63
2022-12-13T00:41:53.181Z,-0.80
2022-12-13T00:44:20.185Z,-0.48
2022-12-13T00:46:47.199Z,-0.50
2022-12-13T00:49:29.216Z,-0.55
2022-12-13T00:51:55.799Z,-0.18
2022-12-13T00:54:22.484Z,-0.40
2022-12-13T00:56:51.219Z,-0.72
2022-12-13T01:02:35.299Z,-0.45
2022-12-13T01:05:01.877Z,-0.78
2022-12-13T01:07:28.437Z,-0.79
2022-12-13T01:09:57.489Z,-0.66
2022-12-13T01:12:24.384Z,-0.77
2022-12-13T01:14:55.891Z,-0.43
2022-12-13T01:17:38.231Z,-0.78
2022-12-13T01:20:06.300Z,-1.00
2022-12-13T01:22:32.873Z,-0.77
2022-12-13T01:24:59.442Z,-0.89
2022-12-13T01:31:46.783Z,-0.82
2022-12-13T01:34:15.442Z,-0.86
2022-12-13T01:36:44.675Z,-0.62
2022-12-13T01:39:15.037Z,-1.03
2022-12-13T01:41:43.431Z,-0.95
2022-12-13T01:44:47.602Z,-1.27
2022-12-13T01:52:38.763Z,-1.28
2022-12-13T01:55:07.690Z,-1.65
2022-12-13T01:57:40.767Z,-1.57
2022-12-13T02:00:11.255Z,-1.64
2022-12-13T02:06:44.175Z,-1.53
2022-12-13T02:09:11.414Z,-1.76
2022-12-13T02:14:13.282Z,-1.68
2022-12-13T02:16:57.140Z,-1.59
2022-12-13T02:19:48.624Z,-1.72
2022-12-13T02:22:18.199Z,-1.63
2022-12-13T02:25:28.612Z,-1.68
2022-12-13T02:28:30.453Z,-2.04
2022-12-13T02:31:23.207Z,-1.99
2022-12-13T02:33:49.945Z,-1.87
2022-12-13T02:36:57.370Z,-1.78
2022-12-13T02:39:32.292Z,-1.61
2022-12-13T02:42:06.094Z,-1.94
2022-12-13T02:44:42.166Z,-2.02
2022-12-13T02:47:51.642Z,-1.77
2022-12-13T02:50:53.376Z,-1.69
2022-12-13T02:53:29.822Z,-1.88
2022-12-13T02:56:00.305Z,-1.90
2022-12-13T02:58:34.605Z,-1.58
2022-12-13T03:01:28.044Z,-1.59
2022-12-13T03:04:10.353Z,-1.75
2022-12-13T03:06:58.680Z,-2.10
2022-12-13T03:09:58.745Z,-2.00
2022-12-13T03:12:55.282Z,-1.65
2022-12-13T03:15:29.587Z,-1.63
2022-12-13T03:18:01.931Z,-1.54
2022-12-13T03:23:20.478Z,-1.82
2022-12-13T03:25:51.143Z,-1.65
2022-12-13T03:28:18.116Z,-1.81
2022-12-13T03:35:34.117Z,-1.69
2022-12-13T03:38:01.961Z,-1.70
2022-12-13T03:40:30.236Z,-1.44
2022-12-13T03:42:57.108Z,-1.64
2022-12-13T03:45:24.061Z,-1.39
2022-12-13T03:52:55.573Z,-1.59
2022-12-13T03:53:37.444Z,-1.13
2022-12-13T03:56:06.362Z,-1.37
2022-12-13T03:59:05.982Z,-1.27
2022-12-13T04:01:37.471Z,-1.11
2022-12-13T04:21:20.643Z,-1.74
2022-12-13T04:23:47.592Z,-1.67
2022-12-13T04:26:32.916Z,-1.47
2022-12-13T04:28:59.467Z,-1.51
2022-12-13T04:31:26.028Z,-1.76
2022-12-13T04:33:52.609Z,-1.69
2022-12-13T04:40:27.490Z,-1.69
2022-12-13T04:42:54.726Z,-1.51
2022-12-13T04:45:22.765Z,-1.60
2022-12-13T04:47:49.947Z,-1.45
2022-12-13T04:50:17.054Z,-1.27
2022-12-13T04:52:44.317Z,-1.46
2022-12-13T04:57:52.199Z,-1.45
2022-12-13T05:00:18.919Z,-1.48
2022-12-13T05:02:45.533Z,-1.55
2022-12-13T05:05:12.373Z,-1.50
2022-12-13T05:07:42.612Z,-1.55
2022-12-13T05:14:37.158Z,-1.52
2022-12-13T08:00:28.939Z,-0.85
2022-12-13T08:09:01.420Z,0.26
2022-12-13T08:11:28.183Z,0.09
2022-12-13T08:13:55.054Z,-0.01
2022-12-13T08:17:11.809Z,-0.12
2022-12-13T08:52:15.328Z,0.61
2022-12-13T08:54:41.902Z,0.37
2022-12-13T08:57:11.513Z,0.59
2022-12-13T08:59:38.090Z,0.77
2022-12-13T09:02:05.462Z,0.99
2022-12-13T09:15:22.308Z,1.74
2022-12-13T09:17:52.304Z,1.53
2022-12-13T09:23:01.303Z,1.75
2022-12-13T09:25:36.550Z,1.94
2022-12-13T09:28:06.317Z,1.84
2022-12-13T09:31:52.627Z,2.18
2022-12-13T09:34:46.041Z,1.94
2022-12-13T09:37:13.600Z,2.45
2022-12-13T09:39:55.517Z,2.37
2022-12-13T09:42:30.913Z,2.18
2022-12-13T09:45:04.285Z,2.36
2022-12-13T09:47:36.045Z,2.12
2022-12-13T09:50:08.267Z,2.12
2022-12-13T09:52:44.205Z,2.22
2022-12-13T09:55:20.216Z,2.48
2022-12-13T09:57:47.786Z,2.50
2022-12-13T10:00:20.500Z,2.56
2022-12-13T10:02:53.580Z,2.74
2022-12-13T10:05:35.891Z,2.70
2022-12-13T10:22:05.057Z,2.91
2022-12-13T10:24:53.844Z,3.23
2022-12-13T10:27:28.857Z,2.99
2022-12-13T10:34:23.356Z,2.96
2022-12-13T15:32:23.162Z,1.21
2022-12-13T15:34:51.529Z,0.98
2022-12-13T15:37:33.134Z,0.98
2022-12-13T15:40:06.756Z,0.99
2022-12-13T15:42:40.048Z,0.97
2022-12-13T15:45:20.040Z,1.01
2022-12-13T15:55:37.048Z,0.81
2022-12-13T15:58:03.940Z,0.80
2022-12-13T16:00:34.684Z,0.73
2022-12-13T16:03:16.161Z,0.54
2022-12-13T16:05:49.101Z,0.61
2022-12-13T16:08:38.137Z,0.56
2022-12-13T16:11:06.862Z,0.59
2022-12-13T16:13:37.101Z,0.59
2022-12-13T16:16:10.135Z,0.60
2022-12-13T16:18:51.259Z,0.56
2022-12-13T16:40:30.019Z,-0.12
2022-12-13T16:43:03.271Z,-0.17
2022-12-13T16:45:42.743Z,-0.11
2022-12-13T16:48:15.588Z,-0.10
2022-12-13T16:50:44.393Z,-0.13
2022-12-13T16:53:18.802Z,-0.10
2022-12-13T16:55:46.171Z,-0.20
2022-12-13T16:58:26.009Z,-0.21
2022-12-13T17:00:52.859Z,-0.67
2022-12-13T17:03:26.036Z,-0.66
2022-12-13T17:05:58.933Z,-0.52
2022-12-13T17:08:25.775Z,-0.53
2022-12-13T17:10:58.227Z,-0.66
2022-12-13T17:13:26.036Z,-0.66
2022-12-13T17:15:59.479Z,-0.73
2022-12-13T17:18:26.557Z,-0.79
2022-12-13T17:20:58.421Z,-1.03
2022-12-13T17:23:27.226Z,-0.98
2022-12-13T17:25:58.014Z,-1.15
2022-12-13T17:28:25.671Z,-1.16
2022-12-13T17:30:54.841Z,-1.13
2022-12-13T17:33:22.225Z,-1.12
2022-12-13T17:35:48.921Z,-1.09
2022-12-13T17:38:15.438Z,-1.14
2022-12-13T17:40:42.171Z,-1.18
2022-12-13T17:43:27.210Z,-1.19
2022-12-13T17:46:06.121Z,-1.21
2022-12-13T17:48:40.683Z,-1.30
2022-12-13T17:51:09.281Z,-1.44
2022-12-13T17:53:36.880Z,-1.58
2022-12-13T17:56:06.570Z,-1.82
2022-12-13T17:58:34.237Z,-1.50
2022-12-13T18:01:12.219Z,-1.29
2022-12-13T18:03:38.910Z,-1.40
2022-12-13T18:06:07.203Z,-1.36
2022-12-13T18:08:38.915Z,-1.42
2022-12-13T18:13:54.894Z,-1.46
2022-12-13T18:16:23.836Z,-1.38
2022-12-13T18:18:54.720Z,-1.47
2022-12-13T18:21:22.881Z,-1.51
2022-12-13T18:26:24.921Z,-1.95
2022-12-13T18:28:52.409Z,-1.63
2022-12-13T18:31:24.102Z,-1.72
2022-12-13T18:33:52.533Z,-1.56
2022-12-13T18:36:21.688Z,-1.86
2022-12-13T18:38:48.719Z,-1.90
2022-12-13T18:41:18.393Z,-1.80
2022-12-13T18:43:45.919Z,-1.53
2022-12-13T18:46:14.075Z,-1.41
2022-12-13T18:48:44.111Z,-1.44
2022-12-13T18:51:10.865Z,-1.62
2022-12-13T18:53:38.448Z,-1.88
2022-12-13T18:56:11.671Z,-1.52
2022-12-13T18:58:43.076Z,-1.83
2022-12-13T19:01:12.819Z,-1.88
2022-12-13T19:03:40.160Z,-1.64
2022-12-13T19:06:08.072Z,-1.57
2022-12-13T19:08:36.542Z,-1.48
2022-12-13T19:11:06.538Z,-1.54
2022-12-13T19:13:33.162Z,-1.84
2022-12-13T19:16:08.444Z,-1.90
2022-12-13T19:18:37.026Z,-1.90
2022-12-13T19:21:07.740Z,-1.95
2022-12-13T19:23:35.465Z,-1.96
2022-12-13T19:26:06.728Z,-1.92
2022-12-13T19:28:34.324Z,-1.81
2022-12-13T19:31:11.323Z,-2.03
2022-12-13T19:33:37.968Z,-2.07
2022-12-13T19:36:05.967Z,-1.96
2022-12-13T19:38:32.871Z,-1.87
2022-12-13T19:41:01.184Z,-2.06
2022-12-13T19:43:28.487Z,-2.03
2022-12-13T19:45:55.271Z,-1.91
2022-12-13T19:56:27.354Z,-1.75
2022-12-13T19:58:54.335Z,-2.02
2022-12-13T20:01:21.073Z,-2.25
2022-12-13T20:03:48.079Z,-2.10
2022-12-13T20:06:20.095Z,-2.19
2022-12-13T20:08:47.034Z,-2.15
2022-12-13T20:11:17.180Z,-2.19
2022-12-13T20:13:43.811Z,-2.23
2022-12-13T20:16:17.312Z,-2.14
2022-12-13T20:18:44.036Z,-2.05
2022-12-13T20:21:13.054Z,-1.93
2022-12-13T20:23:42.247Z,-2.22
2022-12-13T20:26:19.398Z,-2.23
2022-12-13T20:28:46.361Z,-2.23
2022-12-13T20:31:16.522Z,-2.17
2022-12-13T20:33:43.098Z,-2.38
2022-12-13T20:36:26.359Z,-2.36
2022-12-13T20:38:56.304Z,-2.16
2022-12-13T20:41:42.832Z,-2.33
2022-12-13T20:44:12.264Z,-2.32
2022-12-13T20:46:39.703Z,-2.22
2022-12-13T20:49:08.765Z,-1.95
2022-12-13T20:51:37.661Z,-1.98
2022-12-13T20:54:04.800Z,-2.28
2022-12-13T20:56:35.269Z,-2.12
2022-12-13T20:59:03.531Z,-2.01
2022-12-13T21:01:32.440Z,-2.04
2022-12-13T21:04:01.103Z,-2.08
2022-12-13T21:06:28.799Z,-2.04
2022-12-13T21:08:59.904Z,-1.98
2022-12-13T21:11:38.439Z,-1.94
2022-12-13T21:14:11.139Z,-1.91
2022-12-13T21:16:41.936Z,-1.97
2022-12-13T21:30:03.765Z,-2.09
2022-12-13T21:32:30.413Z,-1.95
2022-12-13T21:38:44.263Z,-1.95
2022-12-13T21:41:32.667Z,-1.93
2022-12-13T21:44:01.885Z,-2.00
2022-12-13T21:46:47.908Z,-1.85
2022-12-13T21:49:16.467Z,-1.85
2022-12-13T21:57:12.614Z,-2.02
2022-12-13T21:59:39.197Z,-2.20
2022-12-13T22:02:18.169Z,-2.27
2022-12-13T22:04:48.162Z,-2.10
2022-12-13T22:29:39.606Z,-1.97
2022-12-13T22:32:06.587Z,-2.03
2022-12-13T22:34:33.282Z,-2.14
2022-12-13T22:37:00.651Z,-1.82
2022-12-13T22:39:27.204Z,-2.19
2022-12-13T22:41:53.749Z,-2.40
2022-12-13T22:44:23.173Z,-2.93
2022-12-13T22:46:49.732Z,-2.59
2022-12-13T22:49:16.375Z,-2.52
2022-12-13T22:51:43.271Z,-2.40
2022-12-13T22:54:10.094Z,-2.47
2022-12-13T22:56:36.728Z,-2.06
2022-12-13T22:59:21.550Z,-2.10
2022-12-13T23:01:48.500Z,-1.84
2022-12-13T23:04:15.506Z,-1.94
2022-12-13T23:06:42.432Z,-1.78
2022-12-13T23:51:07.360Z,-1.92
2022-12-13T23:53:34.521Z,-2.12
2022-12-13T23:56:01.408Z,-2.35
